Time;durP1;ratioP1;P1;durP2;ratioP2;P2;SDS_P1;SDS_P2;PMS_P1;PMS_P2;Temp;Humidity;BMP_temperature;BMP_pressure;BME280_temperature;BME280_humidity;BME280_pressure;Samples;Min_cycle;Max_cycle;Signal;HPM_P1;HPM_P2
2022/04/29 00:01:58;;;;;;;4.47;4.07;;;7.00;76.00;;;;;;4993403;28;20197;-65
2022/04/29 00:04:24;;;;;;;5.57;3.70;;;6.90;76.10;;;;;;5010004;28;20187;-65
2022/04/29 00:06:50;;;;;;;4.80;3.57;;;6.90;76.30;;;;;;5025579;28;20172;-65
2022/04/29 00:09:16;;;;;;;6.10;4.03;;;6.90;76.70;;;;;;4977940;28;20307;-65
2022/04/29 00:11:42;;;;;;;3.67;3.37;;;6.90;76.50;;;;;;5030753;28;20462;-65
2022/04/29 00:14:08;;;;;;;6.43;3.87;;;6.80;76.70;;;;;;5029377;28;20446;-66
2022/04/29 00:16:34;;;;;;;4.00;3.60;;;6.80;76.70;;;;;;5029542;28;20222;-66
2022/04/29 00:18:59;;;;;;;5.17;3.80;;;6.80;76.70;;;;;;5012772;28;20510;-67
2022/04/29 00:21:25;;;;;;;7.23;4.20;;;6.80;76.90;;;;;;5013576;28;20168;-67
2022/04/29 00:23:51;;;;;;;4.57;3.70;;;6.80;76.80;;;;;;5029106;28;20199;-67
2022/04/29 00:26:16;;;;;;;4.40;3.83;;;6.70;76.80;;;;;;5006112;28;20228;-67
2022/04/29 00:28:42;;;;;;;4.73;4.00;;;6.70;76.80;;;;;;4980555;28;20199;-67
2022/04/29 00:31:08;;;;;;;5.40;3.63;;;6.70;77.00;;;;;;5012709;28;20192;-68
2022/04/29 00:33:33;;;;;;;6.63;3.93;;;6.70;77.10;;;;;;5029006;28;20199;-65
2022/04/29 00:35:59;;;;;;;6.40;3.80;;;6.70;77.50;;;;;;5029595;28;20184;-65
2022/04/29 00:38:24;;;;;;;4.90;3.73;;;6.70;77.40;;;;;;5029075;28;20290;-65
2022/04/29 00:40:50;;;;;;;8.87;4.00;;;6.60;77.10;;;;;;5029467;28;20212;-66
2022/04/29 00:43:16;;;;;;;5.13;3.90;;;6.60;77.20;;;;;;5029222;28;20215;-65
2022/04/29 00:45:42;;;;;;;4.20;3.80;;;6.60;77.30;;;;;;5029660;28;20187;-65
2022/04/29 00:48:08;;;;;;;6.37;4.37;;;6.50;77.40;;;;;;5025984;28;20203;-65
2022/04/29 00:50:35;;;;;;;6.60;3.93;;;6.50;76.90;;;;;;4994066;28;20975;-66
2022/04/29 00:53:02;;;;;;;7.67;3.63;;;6.50;77.70;;;;;;5027904;28;20537;-66
2022/04/29 00:55:29;;;;;;;5.90;4.40;;;6.50;77.60;;;;;;4996459;28;20437;-66
2022/04/29 00:58:08;;;;;;;4.80;3.73;;;6.50;77.60;;;;;;5008404;28;20471;-66
2022/04/29 01:00:35;;;;;;;5.07;3.50;;;6.50;77.50;;;;;;5009335;28;20657;-65
2022/04/29 01:03:03;;;;;;;3.53;3.23;;;6.40;76.60;;;;;;4994364;28;20475;-65
2022/04/29 01:05:29;;;;;;;4.03;3.60;;;6.50;77.10;;;;;;5030292;28;20446;-65
2022/04/29 01:07:55;;;;;;;5.90;3.30;;;6.50;77.10;;;;;;4999039;28;20438;-65
2022/04/29 01:10:23;;;;;;;4.10;3.37;;;6.50;77.20;;;;;;5014486;28;20216;-65
2022/04/29 01:12:55;;;;;;;5.07;3.47;;;6.40;76.60;;;;;;5004758;28;20202;-65
2022/04/29 01:15:21;;;;;;;4.47;3.57;;;6.50;77.40;;;;;;5039132;28;20451;-65
2022/04/29 01:17:52;;;;;;;4.70;4.07;;;6.50;77.10;;;;;;4998944;28;20461;-65
2022/04/29 01:20:24;;;;;;;4.53;3.53;;;6.60;76.80;;;;;;5047761;28;20214;-65
2022/04/29 01:22:49;;;;;;;4.23;3.83;;;6.60;76.90;;;;;;5048943;28;20430;-65
2022/04/29 01:25:15;;;;;;;6.20;3.60;;;6.60;77.20;;;;;;5016460;28;20451;-65
2022/04/29 01:27:41;;;;;;;6.20;3.70;;;6.50;77.40;;;;;;5032113;28;20662;-65
2022/04/29 01:30:08;;;;;;;4.50;4.10;;;6.50;77.60;;;;;;5015720;28;20192;-66
2022/04/29 01:32:39;;;;;;;5.77;4.17;;;6.50;77.30;;;;;;5012613;28;20192;-65
2022/04/29 01:35:06;;;;;;;6.00;4.00;;;6.50;77.60;;;;;;5028763;28;20503;-65
2022/04/29 01:37:31;;;;;;;8.00;5.03;;;6.50;77.80;;;;;;5028756;28;20482;-65
2022/04/29 01:39:57;;;;;;;5.47;4.20;;;6.50;77.50;;;;;;5028809;28;20475;-64
2022/04/29 01:42:23;;;;;;;6.33;4.10;;;6.60;77.20;;;;;;5029215;28;20180;-64
2022/04/29 01:44:49;;;;;;;4.80;3.43;;;6.60;76.90;;;;;;5048429;28;20184;-65
2022/04/29 01:47:15;;;;;;;5.47;4.27;;;6.70;77.30;;;;;;5016467;28;20168;-66
2022/04/29 01:49:42;;;;;;;7.10;4.90;;;6.70;77.20;;;;;;5026565;28;20200;-66
2022/04/29 01:52:10;;;;;;;5.67;4.30;;;6.70;77.50;;;;;;5015439;28;20188;-66
2022/04/29 01:54:37;;;;;;;4.87;4.37;;;6.70;77.80;;;;;;5031396;28;20433;-65
2022/04/29 01:57:05;;;;;;;4.97;4.30;;;6.70;77.70;;;;;;5004316;28;20439;-65
2022/04/29 01:59:31;;;;;;;7.70;4.87;;;6.80;77.70;;;;;;5011779;28;20480;-65
2022/04/29 02:01:58;;;;;;;5.60;4.27;;;6.80;77.80;;;;;;5007769;28;20426;-66
2022/04/29 02:04:24;;;;;;;4.90;4.37;;;6.80;77.80;;;;;;4998378;28;20448;-65
2022/04/29 02:06:50;;;;;;;9.10;4.87;;;6.70;77.50;;;;;;5014988;28;20457;-65
2022/04/29 02:09:16;;;;;;;6.40;4.60;;;6.70;77.60;;;;;;5031658;28;20454;-66
2022/04/29 02:12:03;;;;;;;9.00;5.70;;;6.70;77.80;;;;;;5018166;28;20287;-66
2022/04/29 02:14:28;;;;;;;4.90;4.30;;;6.70;78.20;;;;;;4994961;28;20200;-66
2022/04/29 02:16:55;;;;;;;6.43;4.27;;;6.60;78.50;;;;;;5042083;28;20451;-65
2022/04/29 02:19:22;;;;;;;5.63;4.83;;;6.70;78.30;;;;;;5013721;28;20475;-65
2022/04/29 02:21:48;;;;;;;5.73;3.83;;;6.60;78.00;;;;;;4998787;28;20439;-65
2022/04/29 02:24:14;;;;;;;6.03;4.53;;;6.60;78.50;;;;;;5011362;28;20419;-65
2022/04/29 02:26:39;;;;;;;5.37;4.83;;;6.60;78.60;;;;;;5011428;28;20444;-65
2022/04/29 02:29:07;;;;;;;7.60;4.67;;;6.60;78.80;;;;;;5027889;28;20242;-66
2022/04/29 02:31:33;;;;;;;6.43;4.80;;;6.60;78.90;;;;;;4982135;28;20222;-64
2022/04/29 02:33:58;;;;;;;5.73;4.40;;;6.60;78.90;;;;;;5031121;28;20453;-65
2022/04/29 02:36:24;;;;;;;5.97;4.20;;;6.50;78.90;;;;;;4998199;28;20438;-65
2022/04/29 02:38:50;;;;;;;6.30;4.47;;;6.50;78.90;;;;;;5031274;28;20239;-65
2022/04/29 02:41:15;;;;;;;5.77;4.67;;;6.40;78.80;;;;;;5030260;28;20286;-65
2022/04/29 02:43:41;;;;;;;6.23;5.40;;;6.30;78.60;;;;;;5014606;28;20202;-65
2022/04/29 02:46:07;;;;;;;8.23;5.03;;;6.30;78.70;;;;;;5020028;28;20200;-65
2022/04/29 02:48:33;;;;;;;7.07;4.67;;;6.30;78.60;;;;;;5004835;28;20458;-65
2022/04/29 02:50:59;;;;;;;6.00;4.57;;;6.30;78.90;;;;;;4994459;28;20289;-65
2022/04/29 02:53:25;;;;;;;6.53;4.83;;;6.30;79.00;;;;;;5013717;28;20777;-66
2022/04/29 02:55:51;;;;;;;7.23;4.73;;;6.20;78.90;;;;;;5030348;28;20434;-66
2022/04/29 02:58:17;;;;;;;6.50;4.60;;;6.20;79.10;;;;;;5029145;28;20422;-66
2022/04/29 03:00:43;;;;;;;5.30;4.80;;;6.10;79.40;;;;;;4996103;28;20301;-66
2022/04/29 03:03:08;;;;;;;7.77;4.70;;;6.10;79.50;;;;;;4997668;28;20229;-66
2022/04/29 03:05:34;;;;;;;8.03;5.07;;;6.10;79.60;;;;;;4996100;28;20250;-65
2022/04/29 03:08:00;;;;;;;5.30;4.80;;;6.10;79.80;;;;;;4999078;28;20202;-64
2022/04/29 03:10:26;;;;;;;5.57;4.80;;;6.00;79.50;;;;;;4998944;28;20200;-65
2022/04/29 03:12:52;;;;;;;5.20;4.70;;;5.90;79.40;;;;;;5018155;28;20257;-65
2022/04/29 03:15:18;;;;;;;6.27;5.50;;;5.90;79.60;;;;;;4995548;28;20195;-65
2022/04/29 03:20:36;;;;;;;5.00;4.50;;;5.80;80.00;;;;;;5012656;28;20318;-65
2022/04/29 03:23:02;;;;;;;5.83;4.90;;;5.80;80.30;;;;;;5029814;28;20492;-65
2022/04/29 03:25:28;;;;;;;8.80;4.50;;;5.80;80.60;;;;;;5010104;28;20968;-65
2022/04/29 03:27:54;;;;;;;6.67;4.80;;;5.80;80.80;;;;;;5013202;28;20450;-65
2022/04/29 03:30:19;;;;;;;5.97;4.67;;;5.80;80.80;;;;;;5028904;28;20221;-65
2022/04/29 03:32:56;;;;;;;5.83;5.00;;;5.70;80.60;;;;;;5029309;28;20286;-65
2022/04/29 03:35:22;;;;;;;6.37;5.10;;;5.70;81.00;;;;;;5013310;28;20253;-65
2022/04/29 03:37:51;;;;;;;9.10;5.43;;;5.70;81.20;;;;;;4997018;28;20482;-65
2022/04/29 03:40:21;;;;;;;6.47;4.67;;;5.70;81.10;;;;;;5036456;28;20238;-65
2022/04/29 03:42:52;;;;;;;6.17;4.63;;;5.70;81.10;;;;;;5064051;28;20539;-65
2022/04/29 03:45:18;;;;;;;9.37;5.10;;;5.70;81.20;;;;;;5033304;28;20449;-65
2022/04/29 03:47:44;;;;;;;6.63;5.07;;;5.70;80.90;;;;;;5049051;28;20438;-68
2022/04/29 03:50:10;;;;;;;6.73;5.50;;;5.60;81.20;;;;;;5033198;28;20428;-69
2022/04/29 03:52:50;;;;;;;8.40;5.37;;;5.50;81.40;;;;;;5032579;28;20201;-65
2022/04/29 03:55:18;;;;;;;7.30;5.07;;;5.50;81.50;;;;;;5050083;28;20427;-65
2022/04/29 03:57:44;;;;;;;8.77;6.27;;;5.50;81.50;;;;;;5049217;28;20528;-66
2022/04/29 04:00:11;;;;;;;7.33;5.50;;;5.50;81.60;;;;;;5048800;28;20568;-67
2022/04/29 04:02:36;;;;;;;10.53;5.70;;;5.50;81.50;;;;;;5066129;28;20197;-66
2022/04/29 04:05:02;;;;;;;6.93;5.10;;;5.60;81.30;;;;;;5016759;28;20433;-66
2022/04/29 04:07:28;;;;;;;7.40;5.03;;;5.50;81.50;;;;;;5033579;28;20261;-65
2022/04/29 04:09:54;;;;;;;7.50;5.67;;;5.60;81.50;;;;;;4998336;28;20198;-65
2022/04/29 04:12:20;;;;;;;7.67;4.83;;;5.70;80.90;;;;;;5043177;28;20202;-65
2022/04/29 04:14:45;;;;;;;6.80;5.53;;;5.60;80.70;;;;;;5049260;28;20245;-64
2022/04/29 04:17:11;;;;;;;12.03;5.77;;;5.60;80.80;;;;;;5048573;28;20452;-64
2022/04/29 04:19:37;;;;;;;5.73;5.10;;;5.60;81.10;;;;;;5030152;28;20206;-63
2022/04/29 04:22:03;;;;;;;5.90;5.27;;;5.50;81.20;;;;;;5065099;28;20275;-65
2022/04/29 04:24:29;;;;;;;5.17;4.60;;;5.50;81.30;;;;;;5036167;28;20275;-65
2022/04/29 04:26:55;;;;;;;7.30;5.40;;;5.50;81.40;;;;;;5025322;28;20240;-64
2022/04/29 04:29:21;;;;;;;5.83;5.23;;;5.40;81.30;;;;;;5024093;28;20507;-65
2022/04/29 04:31:47;;;;;;;10.73;5.53;;;5.50;81.40;;;;;;5031529;28;20187;-64
2022/04/29 04:36:57;;;;;;;7.63;4.80;;;5.60;81.40;;;;;;5061500;28;20608;-64
2022/04/29 04:39:23;;;;;;;6.57;5.17;;;5.60;81.40;;;;;;5035908;28;20580;-65
2022/04/29 04:41:49;;;;;;;6.13;5.53;;;5.60;81.50;;;;;;5049266;28;20205;-65
2022/04/29 04:44:15;;;;;;;6.27;5.13;;;5.60;81.60;;;;;;5049851;28;20228;-65
2022/04/29 04:46:40;;;;;;;8.73;5.80;;;5.60;81.70;;;;;;5047041;28;20191;-65
2022/04/29 04:49:06;;;;;;;6.00;5.40;;;5.60;81.60;;;;;;5033359;28;20187;-64
2022/04/29 04:51:32;;;;;;;8.47;6.13;;;5.60;81.60;;;;;;5047482;28;20191;-65
2022/04/29 04:53:58;;;;;;;6.63;5.30;;;5.70;81.80;;;;;;5032133;28;20206;-66
2022/04/29 04:56:24;;;;;;;6.30;5.20;;;5.80;81.50;;;;;;5048286;28;20429;-66
2022/04/29 04:58:50;;;;;;;6.53;4.90;;;5.80;81.50;;;;;;5047536;28;20206;-66
2022/04/29 05:01:15;;;;;;;11.00;7.87;;;5.80;81.40;;;;;;5017419;28;20194;-65
2022/04/29 05:03:43;;;;;;;12.40;7.73;;;5.90;81.40;;;;;;5033826;28;20256;-64
2022/04/29 05:06:08;;;;;;;12.83;7.10;;;5.80;81.40;;;;;;5033594;28;20190;-65
2022/04/29 05:08:34;;;;;;;8.73;6.13;;;5.90;81.50;;;;;;5049695;28;20441;-64
2022/04/29 05:11:00;;;;;;;8.17;5.83;;;5.90;81.20;;;;;;5034725;28;20237;-66
2022/04/29 05:13:25;;;;;;;491.87;71.50;;;6.00;81.00;;;;;;5049268;28;20191;-66
2022/04/29 05:15:51;;;;;;;137.73;26.33;;;6.00;80.70;;;;;;5020166;28;20286;-65
2022/04/29 05:18:17;;;;;;;52.57;10.97;;;6.10;80.50;;;;;;5003307;28;20192;-66
2022/04/29 05:20:43;;;;;;;10.33;6.37;;;6.20;80.20;;;;;;5017686;28;20221;-66
2022/04/29 05:23:08;;;;;;;5.93;4.50;;;6.30;80.10;;;;;;5049617;28;20190;-67
2022/04/29 05:25:34;;;;;;;6.70;4.90;;;6.30;79.80;;;;;;5064868;28;20199;-66
2022/04/29 05:28:01;;;;;;;10.33;5.83;;;6.30;79.30;;;;;;5047325;28;20180;-66
2022/04/29 05:30:27;;;;;;;6.17;4.80;;;6.40;79.60;;;;;;5048766;28;20502;-65
2022/04/29 05:32:53;;;;;;;6.30;5.13;;;6.40;79.50;;;;;;5047658;28;20453;-66
2022/04/29 05:35:19;;;;;;;8.50;5.00;;;6.50;79.00;;;;;;5032151;28;20464;-65
2022/04/29 05:37:45;;;;;;;5.23;4.23;;;6.50;78.90;;;;;;5015475;28;20296;-64
2022/04/29 05:42:56;;;;;;;7.23;5.10;;;6.60;79.20;;;;;;5019429;28;20194;-65
2022/04/29 05:45:21;;;;;;;5.07;4.30;;;6.70;79.10;;;;;;5034014;28;20414;-64
2022/04/29 05:47:47;;;;;;;7.77;4.77;;;6.70;79.10;;;;;;5050295;28;20191;-65
2022/04/29 05:50:13;;;;;;;5.70;5.17;;;6.80;78.20;;;;;;5040856;28;20200;-63
2022/04/29 05:52:39;;;;;;;6.57;4.73;;;6.90;77.30;;;;;;5014004;28;20168;-65
2022/04/29 05:55:05;;;;;;;4.97;3.80;;;6.90;77.70;;;;;;5039373;28;20215;-66
2022/04/29 05:57:30;;;;;;;7.40;5.70;;;7.00;77.90;;;;;;5016005;28;20193;-64
2022/04/29 05:59:58;;;;;;;6.20;4.73;;;7.10;77.90;;;;;;5025426;28;20465;-67
2022/04/29 06:02:24;;;;;;;6.57;4.90;;;7.10;77.90;;;;;;4999269;28;20199;-70
2022/04/29 06:04:50;;;;;;;7.13;5.13;;;7.10;77.80;;;;;;5048140;28;20407;-68
2022/04/29 06:07:16;;;;;;;6.40;4.50;;;7.20;78.10;;;;;;5031355;28;20581;-68
2022/04/29 06:09:42;;;;;;;5.60;4.70;;;7.20;78.30;;;;;;5015162;28;20190;-69
2022/04/29 06:12:09;;;;;;;5.03;4.53;;;7.30;78.20;;;;;;5031468;28;20188;-68
2022/04/29 06:14:35;;;;;;;7.97;5.30;;;7.30;76.90;;;;;;5031856;28;20442;-67
2022/04/29 06:17:01;;;;;;;7.00;4.93;;;7.40;77.20;;;;;;5050256;28;20461;-68
2022/04/29 06:19:26;;;;;;;13.53;5.37;;;7.40;77.50;;;;;;5030752;28;20464;-69
2022/04/29 06:21:52;;;;;;;7.37;4.77;;;7.50;75.50;;;;;;5000675;28;20208;-68
2022/04/29 06:24:18;;;;;;;6.97;5.27;;;7.70;75.10;;;;;;5014577;28;20186;-68
2022/04/29 06:26:43;;;;;;;8.50;5.00;;;7.80;74.70;;;;;;5014931;28;20183;-69
2022/04/29 06:29:09;;;;;;;6.60;4.70;;;7.90;73.80;;;;;;5015010;28;20203;-69
2022/04/29 06:31:35;;;;;;;5.00;3.90;;;8.00;74.60;;;;;;5031158;28;20172;-68
2022/04/29 06:34:00;;;;;;;5.17;4.60;;;8.00;74.70;;;;;;5064276;28;20274;-68
2022/04/29 06:36:26;;;;;;;8.57;5.50;;;8.00;75.50;;;;;;5017517;28;20226;-68
2022/04/29 06:38:52;;;;;;;7.57;5.57;;;8.10;74.80;;;;;;5013298;28;20273;-68
2022/04/29 06:41:17;;;;;;;6.50;4.83;;;8.30;72.60;;;;;;5034398;28;20187;-68
2022/04/29 06:43:43;;;;;;;6.60;4.60;;;8.40;72.40;;;;;;5034246;28;20318;-68
2022/04/29 06:46:10;;;;;;;7.47;4.87;;;8.40;73.00;;;;;;5050779;28;20187;-69
2022/04/29 06:48:36;;;;;;;8.83;4.90;;;8.50;72.80;;;;;;5047690;28;20446;-67
2022/04/29 06:51:02;;;;;;;5.87;4.30;;;8.70;73.30;;;;;;5033514;28;20434;-68
2022/04/29 06:53:27;;;;;;;5.47;4.47;;;8.80;72.00;;;;;;5017793;28;20491;-68
2022/04/29 06:55:54;;;;;;;70.93;16.90;;;8.80;72.40;;;;;;5017227;28;20289;-68
2022/04/29 06:58:19;;;;;;;18.23;6.87;;;9.10;68.80;;;;;;5030750;28;20286;-68
2022/04/29 07:00:45;;;;;;;9.27;4.83;;;9.30;67.70;;;;;;5048459;28;20549;-70
2022/04/29 07:03:11;;;;;;;8.07;4.30;;;9.40;67.60;;;;;;5013670;28;20210;-67
2022/04/29 07:05:38;;;;;;;6.50;4.30;;;9.70;65.40;;;;;;5030562;28;20190;-69
2022/04/29 07:08:05;;;;;;;5.97;4.20;;;9.80;65.10;;;;;;5033496;28;20438;-69
2022/04/29 07:10:30;;;;;;;5.60;4.10;;;9.90;64.40;;;;;;5034180;28;20418;-69
2022/04/29 07:12:56;;;;;;;5.43;4.03;;;10.10;63.60;;;;;;5017356;28;20433;-69
2022/04/29 07:15:21;;;;;;;7.13;4.37;;;10.20;64.20;;;;;;5017567;28;20191;-68
2022/04/29 07:17:48;;;;;;;7.00;4.10;;;10.30;62.80;;;;;;5010467;28;20709;-69
2022/04/29 07:20:14;;;;;;;6.50;4.23;;;10.70;61.60;;;;;;5049570;28;20743;-69
2022/04/29 07:22:42;;;;;;;4.60;3.90;;;10.80;61.80;;;;;;5017062;28;20521;-70
2022/04/29 07:25:09;;;;;;;6.07;4.17;;;10.80;60.10;;;;;;5033798;28;20190;-69
2022/04/29 07:27:36;;;;;;;4.43;4.00;;;11.10;59.10;;;;;;5018354;28;20442;-68
2022/04/29 07:30:03;;;;;;;5.27;4.07;;;11.30;59.40;;;;;;5046967;28;20415;-68
2022/04/29 07:32:29;;;;;;;6.93;3.73;;;11.40;60.00;;;;;;5046570;28;20191;-67
2022/04/29 07:43:11;;;;;;;4.50;3.23;;;12.10;54.90;;;;;;5015152;28;20186;-70
2022/04/29 07:45:38;;;;;;;4.27;3.70;;;12.30;51.90;;;;;;5044606;28;20230;-69
2022/04/29 07:48:07;;;;;;;4.03;3.27;;;12.40;50.80;;;;;;4995533;28;20225;-69
2022/04/29 07:50:33;;;;;;;6.87;3.03;;;12.70;49.00;;;;;;5043064;28;20205;-70
2022/04/29 07:53:02;;;;;;;4.17;3.50;;;12.80;50.00;;;;;;5014683;28;20306;-69
2022/04/29 07:55:28;;;;;;;5.30;3.27;;;13.00;47.60;;;;;;5032382;28;20213;-69
2022/04/29 07:57:53;;;;;;;7.73;3.60;;;13.00;49.10;;;;;;5033068;28;20657;-64
2022/04/29 08:00:19;;;;;;;4.47;3.73;;;13.30;47.20;;;;;;5015859;28;20218;-64
2022/04/29 08:02:45;;;;;;;7.00;2.97;;;13.30;49.30;;;;;;5003258;28;20191;-64
2022/04/29 08:05:11;;;;;;;6.07;3.30;;;13.40;48.40;;;;;;5013170;28;20218;-64
2022/04/29 08:07:37;;;;;;;3.40;2.70;;;13.50;47.20;;;;;;5034833;28;20269;-69
2022/04/29 08:10:03;;;;;;;3.90;3.20;;;13.60;46.20;;;;;;5016432;28;20201;-68
2022/04/29 08:12:29;;;;;;;5.90;2.97;;;13.70;45.80;;;;;;5018527;28;20252;-68
2022/04/29 08:14:56;;;;;;;3.53;3.10;;;13.70;46.60;;;;;;5019096;28;20194;-69
2022/04/29 08:17:22;;;;;;;4.43;3.40;;;13.80;45.40;;;;;;5034675;28;20186;-68
2022/04/29 08:19:49;;;;;;;5.07;3.50;;;13.90;44.60;;;;;;5050089;28;20214;-69
2022/04/29 08:22:16;;;;;;;8.60;3.57;;;14.00;45.90;;;;;;5018802;28;20187;-69
2022/04/29 08:24:42;;;;;;;4.70;3.47;;;14.20;46.00;;;;;;5033054;28;20187;-69
2022/04/29 08:27:08;;;;;;;3.77;3.07;;;14.30;43.50;;;;;;5035058;28;20187;-69
2022/04/29 08:29:33;;;;;;;4.53;2.90;;;14.40;45.20;;;;;;5035475;28;20190;-69
2022/04/29 08:31:59;;;;;;;4.10;3.17;;;14.60;42.90;;;;;;5035487;28;20187;-69
2022/04/29 08:34:25;;;;;;;4.83;2.90;;;14.60;44.10;;;;;;5017820;28;20243;-69
2022/04/29 08:36:51;;;;;;;7.10;3.23;;;14.60;44.70;;;;;;5035478;28;20182;-66
2022/04/29 08:39:17;;;;;;;5.17;3.53;;;14.50;44.40;;;;;;5032873;28;20274;-70
2022/04/29 08:41:43;;;;;;;6.47;4.70;;;14.50;44.60;;;;;;5034505;28;20237;-69
2022/04/29 08:44:10;;;;;;;4.23;3.43;;;14.40;44.80;;;;;;5019185;28;20191;-69
2022/04/29 08:46:40;;;;;;;5.53;3.57;;;14.30;44.10;;;;;;5035760;28;20190;-69
2022/04/29 08:49:07;;;;;;;6.07;3.90;;;14.30;42.10;;;;;;5035362;28;20637;-67
2022/04/29 08:51:36;;;;;;;3.57;3.13;;;14.30;43.50;;;;;;5035092;28;20191;-70
2022/04/29 08:54:04;;;;;;;7.63;4.03;;;14.30;44.70;;;;;;5035430;28;20190;-69
2022/04/29 08:59:18;;;;;;;5.67;3.80;;;14.40;44.10;;;;;;5037341;28;20211;-71
2022/04/29 09:01:44;;;;;;;3.40;3.10;;;14.40;43.40;;;;;;5036202;28;20195;-70
2022/04/29 09:04:10;;;;;;;4.60;2.90;;;14.40;42.20;;;;;;5035055;28;20195;-69
2022/04/29 09:06:56;;;;;;;4.03;3.33;;;14.50;42.20;;;;;;5036111;28;20194;-69
2022/04/29 09:09:22;;;;;;;5.10;3.43;;;14.50;41.20;;;;;;5019194;28;20234;-69
2022/04/29 09:11:48;;;;;;;3.27;2.67;;;14.60;41.90;;;;;;5018870;28;20260;-69
2022/04/29 09:14:24;;;;;;;3.43;3.13;;;14.70;42.40;;;;;;5019627;28;20176;-66
2022/04/29 09:16:50;;;;;;;4.00;3.00;;;14.80;41.90;;;;;;5035668;28;20202;-66
2022/04/29 09:19:45;;;;;;;3.97;2.60;;;15.00;41.90;;;;;;5031733;28;20285;-65
2022/04/29 09:22:12;;;;;;;2.97;2.30;;;15.10;43.20;;;;;;5007216;28;20211;-65
2022/04/29 09:24:38;;;;;;;3.50;2.50;;;15.30;43.50;;;;;;4998674;28;20255;-65
2022/04/29 09:27:05;;;;;;;4.20;2.90;;;15.50;42.20;;;;;;5015751;28;20251;-66
2022/04/29 09:29:41;;;;;;;3.40;3.10;;;15.80;40.30;;;;;;5016987;28;20244;-66
2022/04/29 09:32:07;;;;;;;5.57;3.00;;;16.00;40.10;;;;;;5048924;28;20180;-65
2022/04/29 09:34:53;;;;;;;4.03;3.03;;;16.00;40.90;;;;;;5002640;28;20198;-68
2022/04/29 09:37:24;;;;;;;3.27;2.20;;;16.00;41.20;;;;;;5035757;28;20178;-69
2022/04/29 09:39:50;;;;;;;5.17;3.27;;;15.90;40.40;;;;;;5034182;28;20203;-70
2022/04/29 09:42:16;;;;;;;3.53;3.10;;;15.90;38.60;;;;;;5019172;28;20271;-68
2022/04/29 09:44:42;;;;;;;3.90;2.80;;;15.90;39.10;;;;;;5018740;28;20206;-68
2022/04/29 09:47:11;;;;;;;5.07;2.70;;;15.90;38.60;;;;;;5018841;28;20187;-68
2022/04/29 09:49:37;;;;;;;2.87;2.67;;;16.00;39.80;;;;;;5030130;28;20194;-69
2022/04/29 09:52:04;;;;;;;3.30;3.00;;;16.10;40.00;;;;;;5018529;28;20188;-69
2022/04/29 09:54:37;;;;;;;3.80;2.60;;;16.30;41.30;;;;;;5019121;28;20218;-69
2022/04/29 09:57:15;;;;;;;3.33;2.60;;;16.40;38.40;;;;;;5035245;28;20183;-69
2022/04/29 09:59:50;;;;;;;4.87;3.20;;;16.50;40.40;;;;;;5019658;28;20234;-69
2022/04/29 10:02:28;;;;;;;4.40;2.70;;;16.60;40.00;;;;;;5062457;28;20223;-68
2022/04/29 10:04:55;;;;;;;3.90;3.10;;;16.80;38.70;;;;;;5014620;28;20184;-69
2022/04/29 10:07:24;;;;;;;3.90;2.90;;;16.80;36.40;;;;;;5015050;28;20180;-70
2022/04/29 10:09:53;;;;;;;3.10;2.67;;;17.00;38.60;;;;;;5015553;28;20184;-69
2022/04/29 10:12:20;;;;;;;3.00;2.70;;;17.20;38.20;;;;;;5014916;28;20188;-70
2022/04/29 10:14:48;;;;;;;3.20;2.90;;;17.30;39.40;;;;;;5014806;28;20194;-69
2022/04/29 10:22:44;;;;;;;2.63;2.37;;;17.60;40.40;;;;;;5035782;28;20183;-68
2022/04/29 10:25:11;;;;;;;4.53;2.40;;;17.80;40.10;;;;;;5014429;28;20184;-68
2022/04/29 10:27:39;;;;;;;3.37;2.70;;;18.00;39.40;;;;;;5031189;28;20183;-68
2022/04/29 10:30:06;;;;;;;2.30;2.10;;;17.90;35.40;;;;;;5047899;28;20259;-67
2022/04/29 10:32:58;;;;;;;2.23;2.03;;;18.00;36.80;;;;;;5016823;28;20209;-68
2022/04/29 10:35:56;;;;;;;2.77;2.57;;;18.10;35.30;;;;;;5033579;28;20191;-68
2022/04/29 10:38:36;;;;;;;3.97;2.80;;;18.10;35.10;;;;;;5016591;28;20717;-69
2022/04/29 10:41:18;;;;;;;2.57;2.00;;;18.00;34.80;;;;;;5034156;28;20280;-69
2022/04/29 10:43:47;;;;;;;5.63;3.00;;;18.00;35.00;;;;;;5034231;28;20171;-68
2022/04/29 10:46:15;;;;;;;2.80;2.53;;;17.90;35.30;;;;;;5034481;28;20179;-69
2022/04/29 10:48:42;;;;;;;4.20;2.93;;;17.90;35.70;;;;;;5034105;28;20274;-69
2022/04/29 10:51:16;;;;;;;2.53;2.33;;;17.80;34.80;;;;;;5029018;28;20266;-69
2022/04/29 10:53:43;;;;;;;2.33;2.00;;;17.90;34.20;;;;;;5018383;28;20194;-69
2022/04/29 10:56:26;;;;;;;3.10;2.80;;;17.90;35.20;;;;;;5034129;28;20191;-68
2022/04/29 10:58:53;;;;;;;3.90;2.80;;;18.00;36.30;;;;;;5032784;28;20316;-68
2022/04/29 11:01:27;;;;;;;2.70;2.47;;;18.10;34.40;;;;;;5024530;28;20211;-69
2022/04/29 11:03:53;;;;;;;2.17;1.97;;;18.30;35.50;;;;;;5020607;28;20401;-68
2022/04/29 11:06:19;;;;;;;2.50;2.30;;;18.30;34.80;;;;;;5031860;28;20271;-69
2022/04/29 11:08:46;;;;;;;2.17;1.97;;;18.40;36.20;;;;;;5050272;28;20290;-68
2022/04/29 11:11:12;;;;;;;4.40;2.50;;;18.40;35.90;;;;;;5033677;28;20188;-69
2022/04/29 11:13:43;;;;;;;3.00;2.53;;;18.60;34.90;;;;;;5017253;28;20241;-68
2022/04/29 11:16:12;;;;;;;2.90;2.70;;;18.70;33.70;;;;;;5033272;28;20259;-67
2022/04/29 11:18:41;;;;;;;4.20;2.90;;;18.70;33.30;;;;;;5019199;28;20188;-67
2022/04/29 11:26:48;;;;;;;2.53;2.27;;;18.70;33.90;;;;;;5033011;28;20226;-69
2022/04/29 11:29:14;;;;;;;4.50;2.13;;;18.80;35.60;;;;;;5016255;28;20187;-69
2022/04/29 11:31:40;;;;;;;2.90;2.70;;;18.80;35.50;;;;;;5033462;28;20191;-69
2022/04/29 11:34:08;;;;;;;3.00;2.30;;;19.00;34.20;;;;;;5016501;28;20241;-69
2022/04/29 11:36:34;;;;;;;2.50;2.30;;;19.10;33.60;;;;;;5033251;28;20167;-69
2022/04/29 11:39:01;;;;;;;2.70;2.40;;;19.20;33.30;;;;;;5002312;28;20233;-68
2022/04/29 11:41:30;;;;;;;3.13;2.70;;;19.50;33.10;;;;;;4997707;28;20180;-68
2022/04/29 11:43:56;;;;;;;3.30;2.50;;;19.50;32.90;;;;;;5013808;28;20250;-68
2022/04/29 11:46:22;;;;;;;3.73;2.57;;;19.30;31.70;;;;;;5014747;28;20164;-68
2022/04/29 11:48:59;;;;;;;2.97;2.40;;;19.50;33.80;;;;;;5016722;28;20186;-68
2022/04/29 11:51:26;;;;;;;3.93;2.90;;;19.80;33.10;;;;;;5033358;28;20175;-68
2022/04/29 11:53:53;;;;;;;3.10;2.90;;;20.10;32.50;;;;;;5033404;28;20167;-68
2022/04/29 11:56:19;;;;;;;3.37;2.60;;;20.50;30.20;;;;;;5008590;28;20212;-68
2022/04/29 11:58:44;;;;;;;2.50;2.30;;;20.60;31.30;;;;;;5038242;28;20271;-69
2022/04/29 12:01:10;;;;;;;4.13;2.60;;;20.80;32.10;;;;;;5016355;28;20210;-67
2022/04/29 12:03:36;;;;;;;2.80;2.13;;;20.70;29.80;;;;;;5013249;28;20187;-67
2022/04/29 12:06:03;;;;;;;3.40;2.40;;;20.80;29.80;;;;;;4997130;28;20187;-67
2022/04/29 12:08:39;;;;;;;3.40;2.37;;;20.70;30.90;;;;;;5030171;28;20175;-68
2022/04/29 12:11:04;;;;;;;3.50;2.40;;;20.60;31.50;;;;;;5033309;28;20186;-68
2022/04/29 12:13:30;;;;;;;2.87;2.37;;;20.70;31.80;;;;;;5000143;28;20701;-68
2022/04/29 12:15:56;;;;;;;2.63;2.23;;;20.70;33.20;;;;;;4996796;28;20198;-68
2022/04/29 12:18:47;;;;;;;2.47;2.20;;;20.80;33.10;;;;;;5004417;28;20195;-68
2022/04/29 12:21:20;;;;;;;6.13;2.60;;;20.80;31.60;;;;;;5018297;28;20273;-67
2022/04/29 12:23:46;;;;;;;3.17;2.50;;;22.70;29.50;;;;;;5046280;28;20198;-68
2022/04/29 12:26:12;;;;;;;4.80;2.20;;;24.80;28.40;;;;;;5045538;28;20191;-68
2022/04/29 12:28:37;;;;;;;2.77;2.40;;;26.80;24.70;;;;;;4997080;28;20179;-68
2022/04/29 12:37:06;;;;;;;4.00;2.50;;;28.80;20.30;;;;;;5014225;28;20199;-67
2022/04/29 12:39:38;;;;;;;3.00;2.77;;;26.90;21.20;;;;;;5045811;28;20262;-67
2022/04/29 12:42:11;;;;;;;2.60;2.33;;;24.90;23.50;;;;;;5046075;28;20187;-67
2022/04/29 12:45:11;;;;;;;2.57;2.13;;;24.30;25.20;;;;;;5013193;28;20191;-68
2022/04/29 12:47:49;;;;;;;2.43;2.20;;;23.40;25.80;;;;;;5046005;28;20168;-69
2022/04/29 12:50:35;;;;;;;2.30;2.03;;;22.80;27.10;;;;;;5048128;28;20172;-67
2022/04/29 12:53:04;;;;;;;3.60;2.43;;;22.20;28.70;;;;;;5016840;28;20193;-67
2022/04/29 12:55:37;;;;;;;2.43;2.23;;;22.00;31.00;;;;;;5029231;28;20294;-68
2022/04/29 12:58:04;;;;;;;2.77;2.20;;;21.90;31.40;;;;;;5032646;28;20229;-67
2022/04/29 13:00:31;;;;;;;3.00;2.40;;;21.80;32.40;;;;;;5034749;28;20305;-67
2022/04/29 13:03:08;;;;;;;3.27;2.50;;;22.30;31.00;;;;;;5035175;28;20194;-70
2022/04/29 13:05:34;;;;;;;4.57;2.50;;;23.90;28.70;;;;;;5036366;28;20171;-69
2022/04/29 13:08:04;;;;;;;3.00;2.07;;;25.80;25.10;;;;;;5016167;28;20179;-70
2022/04/29 13:10:39;;;;;;;2.37;2.17;;;28.30;22.30;;;;;;5023798;28;20198;-68
2022/04/29 13:13:05;;;;;;;3.00;2.30;;;29.30;20.70;;;;;;5035484;28;20197;-67
2022/04/29 13:15:31;;;;;;;2.80;2.27;;;31.40;19.90;;;;;;5019495;28;20207;-66
2022/04/29 13:17:59;;;;;;;3.00;2.10;;;32.40;18.80;;;;;;5017550;28;20172;-67
2022/04/29 13:20:26;;;;;;;2.08;1.83;;;33.70;18.60;;;;;;5018469;28;20183;-67
2022/04/29 13:22:53;;;;;;;3.55;2.00;;;34.70;17.30;;;;;;5035134;28;20226;-70
2022/04/29 13:25:18;;;;;;;2.83;2.30;;;37.20;15.70;;;;;;5019322;28;20250;-70
2022/04/29 13:27:44;;;;;;;2.17;1.83;;;38.40;13.90;;;;;;5016618;28;20193;-68
2022/04/29 13:30:11;;;;;;;2.38;2.13;;;35.70;15.40;;;;;;5027092;28;20298;-68
2022/04/29 13:32:37;;;;;;;2.15;1.90;;;36.40;15.20;;;;;;5017210;28;20213;-67